sensor_id;sensor_type;location;lat;lon;timestamp;P1;durP1;ratioP1;P2;durP2;ratioP2
64282;SDS011;50497;50.720;-2.084;2023-03-23T00:02:29;12.40;;;2.53;;
64282;SDS011;50497;50.720;-2.084;2023-03-23T00:05:01;11.95;;;2.33;;
64282;SDS011;50497;50.720;-2.084;2023-03-23T00:07:28;21.70;;;3.25;;
64282;SDS011;50497;50.720;-2.084;2023-03-23T00:09:54;13.15;;;2.25;;
64282;SDS011;50497;50.720;-2.084;2023-03-23T00:14:54;18.67;;;2.95;;
64282;SDS011;50497;50.720;-2.084;2023-03-23T00:19:45;19.67;;;3.13;;
64282;SDS011;50497;50.720;-2.084;2023-03-23T00:22:14;16.30;;;3.08;;
64282;SDS011;50497;50.720;-2.084;2023-03-23T00:24:44;18.23;;;3.40;;
64282;SDS011;50497;50.720;-2.084;2023-03-23T00:27:09;17.45;;;2.75;;
64282;SDS011;50497;50.720;-2.084;2023-03-23T00:29:37;21.88;;;3.75;;
64282;SDS011;50497;50.720;-2.084;2023-03-23T00:32:03;14.32;;;2.83;;
64282;SDS011;50497;50.720;-2.084;2023-03-23T00:34:29;21.83;;;3.95;;
64282;SDS011;50497;50.720;-2.084;2023-03-23T00:36:57;23.30;;;3.92;;
64282;SDS011;50497;50.720;-2.084;2023-03-23T00:39:24;23.25;;;3.92;;
64282;SDS011;50497;50.720;-2.084;2023-03-23T00:41:52;23.73;;;4.00;;
64282;SDS011;50497;50.720;-2.084;2023-03-23T00:46:44;19.52;;;3.58;;
64282;SDS011;50497;50.720;-2.084;2023-03-23T00:49:13;18.77;;;3.35;;
64282;SDS011;50497;50.720;-2.084;2023-03-23T00:51:44;19.27;;;3.47;;
64282;SDS011;50497;50.720;-2.084;2023-03-23T00:54:10;18.20;;;3.47;;
64282;SDS011;50497;50.720;-2.084;2023-03-23T00:56:36;16.92;;;3.35;;
64282;SDS011;50497;50.720;-2.084;2023-03-23T00:59:02;19.95;;;2.67;;
64282;SDS011;50497;50.720;-2.084;2023-03-23T01:01:28;18.00;;;3.13;;
64282;SDS011;50497;50.720;-2.084;2023-03-23T01:03:54;21.38;;;3.38;;
64282;SDS011;50497;50.720;-2.084;2023-03-23T01:06:25;19.77;;;3.65;;
64282;SDS011;50497;50.720;-2.084;2023-03-23T01:08:52;14.70;;;2.75;;
64282;SDS011;50497;50.720;-2.084;2023-03-23T01:11:19;17.33;;;3.45;;
64282;SDS011;50497;50.720;-2.084;2023-03-23T01:13:45;21.92;;;4.07;;
64282;SDS011;50497;50.720;-2.084;2023-03-23T01:16:10;24.77;;;3.90;;
64282;SDS011;50497;50.720;-2.084;2023-03-23T01:18:36;20.80;;;3.55;;
64282;SDS011;50497;50.720;-2.084;2023-03-23T01:21:06;23.92;;;3.95;;
64282;SDS011;50497;50.720;-2.084;2023-03-23T01:23:34;18.55;;;3.20;;
64282;SDS011;50497;50.720;-2.084;2023-03-23T01:26:03;27.88;;;3.55;;
64282;SDS011;50497;50.720;-2.084;2023-03-23T01:28:33;19.75;;;2.80;;
64282;SDS011;50497;50.720;-2.084;2023-03-23T01:31:04;21.02;;;2.83;;
64282;SDS011;50497;50.720;-2.084;2023-03-23T01:33:35;20.85;;;3.40;;
64282;SDS011;50497;50.720;-2.084;2023-03-23T01:36:04;27.30;;;4.20;;
64282;SDS011;50497;50.720;-2.084;2023-03-23T01:38:31;26.02;;;3.83;;
64282;SDS011;50497;50.720;-2.084;2023-03-23T01:40:57;23.10;;;3.30;;
64282;SDS011;50497;50.720;-2.084;2023-03-23T01:43:23;21.25;;;3.42;;
64282;SDS011;50497;50.720;-2.084;2023-03-23T01:45:48;18.80;;;2.85;;
64282;SDS011;50497;50.720;-2.084;2023-03-23T01:50:54;21.52;;;3.50;;
64282;SDS011;50497;50.720;-2.084;2023-03-23T01:53:45;22.23;;;4.13;;
64282;SDS011;50497;50.720;-2.084;2023-03-23T01:56:14;23.90;;;3.67;;
64282;SDS011;50497;50.720;-2.084;2023-03-23T01:58:44;22.52;;;4.15;;
64282;SDS011;50497;50.720;-2.084;2023-03-23T02:01:11;21.75;;;3.55;;
64282;SDS011;50497;50.720;-2.084;2023-03-23T02:03:41;15.38;;;3.22;;
64282;SDS011;50497;50.720;-2.084;2023-03-23T02:06:09;18.02;;;2.95;;
64282;SDS011;50497;50.720;-2.084;2023-03-23T02:08:35;24.50;;;3.85;;
64282;SDS011;50497;50.720;-2.084;2023-03-23T02:11:08;27.95;;;4.07;;
64282;SDS011;50497;50.720;-2.084;2023-03-23T02:13:37;22.00;;;3.33;;
64282;SDS011;50497;50.720;-2.084;2023-03-23T02:16:08;26.35;;;4.18;;
64282;SDS011;50497;50.720;-2.084;2023-03-23T02:18:40;29.80;;;4.30;;
64282;SDS011;50497;50.720;-2.084;2023-03-23T02:26:59;30.83;;;4.55;;
64282;SDS011;50497;50.720;-2.084;2023-03-23T02:35:26;28.15;;;4.18;;
64282;SDS011;50497;50.720;-2.084;2023-03-23T02:38:26;32.08;;;4.45;;
64282;SDS011;50497;50.720;-2.084;2023-03-23T02:41:22;33.92;;;4.10;;
64282;SDS011;50497;50.720;-2.084;2023-03-23T02:43:52;33.88;;;4.88;;
64282;SDS011;50497;50.720;-2.084;2023-03-23T02:46:18;29.67;;;4.85;;
64282;SDS011;50497;50.720;-2.084;2023-03-23T02:48:45;24.35;;;4.15;;
64282;SDS011;50497;50.720;-2.084;2023-03-23T02:51:16;30.85;;;4.57;;
64282;SDS011;50497;50.720;-2.084;2023-03-23T02:53:44;24.40;;;4.13;;
64282;SDS011;50497;50.720;-2.084;2023-03-23T02:56:11;21.20;;;3.78;;
64282;SDS011;50497;50.720;-2.084;2023-03-23T02:58:39;22.58;;;3.67;;
64282;SDS011;50497;50.720;-2.084;2023-03-23T03:01:16;26.65;;;4.65;;
64282;SDS011;50497;50.720;-2.084;2023-03-23T03:04:11;22.85;;;3.42;;
64282;SDS011;50497;50.720;-2.084;2023-03-23T03:09:18;21.52;;;3.50;;
64282;SDS011;50497;50.720;-2.084;2023-03-23T03:11:52;21.13;;;3.38;;
64282;SDS011;50497;50.720;-2.084;2023-03-23T03:14:37;27.63;;;3.33;;
64282;SDS011;50497;50.720;-2.084;2023-03-23T03:17:42;24.75;;;3.17;;
64282;SDS011;50497;50.720;-2.084;2023-03-23T03:20:04;25.35;;;3.75;;
64282;SDS011;50497;50.720;-2.084;2023-03-23T03:22:35;20.48;;;3.10;;
64282;SDS011;50497;50.720;-2.084;2023-03-23T03:25:03;25.85;;;4.00;;
64282;SDS011;50497;50.720;-2.084;2023-03-23T03:27:31;26.25;;;3.97;;
64282;SDS011;50497;50.720;-2.084;2023-03-23T03:29:59;28.95;;;4.15;;
64282;SDS011;50497;50.720;-2.084;2023-03-23T03:32:30;28.80;;;3.72;;
64282;SDS011;50497;50.720;-2.084;2023-03-23T03:37:33;23.13;;;3.67;;
64282;SDS011;50497;50.720;-2.084;2023-03-23T03:40:02;28.65;;;4.20;;
64282;SDS011;50497;50.720;-2.084;2023-03-23T03:42:29;29.45;;;4.50;;
64282;SDS011;50497;50.720;-2.084;2023-03-23T03:44:55;30.70;;;4.20;;
64282;SDS011;50497;50.720;-2.084;2023-03-23T03:47:23;29.83;;;4.82;;
64282;SDS011;50497;50.720;-2.084;2023-03-23T03:49:49;29.70;;;5.00;;
64282;SDS011;50497;50.720;-2.084;2023-03-23T03:52:15;32.13;;;5.10;;
64282;SDS011;50497;50.720;-2.084;2023-03-23T03:54:40;30.85;;;4.82;;
64282;SDS011;50497;50.720;-2.084;2023-03-23T03:57:06;30.20;;;4.75;;
64282;SDS011;50497;50.720;-2.084;2023-03-23T03:59:31;38.45;;;5.35;;
64282;SDS011;50497;50.720;-2.084;2023-03-23T04:01:58;38.47;;;5.43;;
64282;SDS011;50497;50.720;-2.084;2023-03-23T04:04:23;34.90;;;4.93;;
64282;SDS011;50497;50.720;-2.084;2023-03-23T04:06:49;39.88;;;5.45;;
64282;SDS011;50497;50.720;-2.084;2023-03-23T04:09:14;34.05;;;4.70;;
64282;SDS011;50497;50.720;-2.084;2023-03-23T04:11:40;28.05;;;4.30;;
64282;SDS011;50497;50.720;-2.084;2023-03-23T04:14:06;33.65;;;5.28;;
64282;SDS011;50497;50.720;-2.084;2023-03-23T04:16:31;28.38;;;4.53;;
64282;SDS011;50497;50.720;-2.084;2023-03-23T04:18:59;37.28;;;5.57;;
64282;SDS011;50497;50.720;-2.084;2023-03-23T04:21:25;41.28;;;5.85;;
64282;SDS011;50497;50.720;-2.084;2023-03-23T04:23:53;33.20;;;5.22;;
64282;SDS011;50497;50.720;-2.084;2023-03-23T04:26:19;37.75;;;5.97;;
64282;SDS011;50497;50.720;-2.084;2023-03-23T04:28:45;38.45;;;5.70;;
64282;SDS011;50497;50.720;-2.084;2023-03-23T04:31:10;38.65;;;5.65;;
64282;SDS011;50497;50.720;-2.084;2023-03-23T04:33:38;31.65;;;5.18;;
64282;SDS011;50497;50.720;-2.084;2023-03-23T04:36:05;39.42;;;5.28;;
64282;SDS011;50497;50.720;-2.084;2023-03-23T04:38:31;36.20;;;6.10;;
64282;SDS011;50497;50.720;-2.084;2023-03-23T04:40:59;36.05;;;5.05;;
64282;SDS011;50497;50.720;-2.084;2023-03-23T04:43:27;34.22;;;5.90;;
64282;SDS011;50497;50.720;-2.084;2023-03-23T04:45:56;43.00;;;5.53;;
64282;SDS011;50497;50.720;-2.084;2023-03-23T04:48:28;33.13;;;5.30;;
64282;SDS011;50497;50.720;-2.084;2023-03-23T04:50:55;34.05;;;5.47;;
64282;SDS011;50497;50.720;-2.084;2023-03-23T04:53:24;33.17;;;4.57;;
64282;SDS011;50497;50.720;-2.084;2023-03-23T04:55:50;35.45;;;5.75;;
64282;SDS011;50497;50.720;-2.084;2023-03-23T04:58:15;33.88;;;5.40;;
64282;SDS011;50497;50.720;-2.084;2023-03-23T05:00:41;29.00;;;4.53;;
64282;SDS011;50497;50.720;-2.084;2023-03-23T05:03:09;32.17;;;4.78;;
64282;SDS011;50497;50.720;-2.084;2023-03-23T05:05:35;30.13;;;5.38;;
64282;SDS011;50497;50.720;-2.084;2023-03-23T05:08:01;31.15;;;4.28;;
64282;SDS011;50497;50.720;-2.084;2023-03-23T05:10:26;28.52;;;4.50;;
64282;SDS011;50497;50.720;-2.084;2023-03-23T05:12:52;26.90;;;4.53;;
64282;SDS011;50497;50.720;-2.084;2023-03-23T05:15:19;30.05;;;4.78;;
64282;SDS011;50497;50.720;-2.084;2023-03-23T05:17:44;30.70;;;4.68;;
64282;SDS011;50497;50.720;-2.084;2023-03-23T05:20:10;31.52;;;5.07;;
64282;SDS011;50497;50.720;-2.084;2023-03-23T05:22:41;25.38;;;4.28;;
64282;SDS011;50497;50.720;-2.084;2023-03-23T05:25:13;32.97;;;4.95;;
64282;SDS011;50497;50.720;-2.084;2023-03-23T05:27:39;29.48;;;5.13;;
64282;SDS011;50497;50.720;-2.084;2023-03-23T05:30:07;27.52;;;4.78;;
64282;SDS011;50497;50.720;-2.084;2023-03-23T05:32:36;31.98;;;5.15;;
64282;SDS011;50497;50.720;-2.084;2023-03-23T05:35:02;27.40;;;5.40;;
64282;SDS011;50497;50.720;-2.084;2023-03-23T05:37:28;22.20;;;3.65;;
64282;SDS011;50497;50.720;-2.084;2023-03-23T05:39:57;23.88;;;4.13;;
64282;SDS011;50497;50.720;-2.084;2023-03-23T05:42:27;31.02;;;4.53;;
64282;SDS011;50497;50.720;-2.084;2023-03-23T05:44:56;32.75;;;4.97;;
64282;SDS011;50497;50.720;-2.084;2023-03-23T05:47:23;26.40;;;4.13;;
64282;SDS011;50497;50.720;-2.084;2023-03-23T05:49:48;30.20;;;4.72;;
64282;SDS011;50497;50.720;-2.084;2023-03-23T05:52:18;30.40;;;4.55;;
64282;SDS011;50497;50.720;-2.084;2023-03-23T05:54:45;26.40;;;3.92;;
64282;SDS011;50497;50.720;-2.084;2023-03-23T05:57:11;34.30;;;5.35;;
64282;SDS011;50497;50.720;-2.084;2023-03-23T05:59:40;28.60;;;5.22;;
64282;SDS011;50497;50.720;-2.084;2023-03-23T06:02:06;30.45;;;4.65;;
64282;SDS011;50497;50.720;-2.084;2023-03-23T06:04:32;24.40;;;4.13;;
64282;SDS011;50497;50.720;-2.084;2023-03-23T06:09:31;28.02;;;4.50;;
64282;SDS011;50497;50.720;-2.084;2023-03-23T06:12:00;28.13;;;4.28;;
64282;SDS011;50497;50.720;-2.084;2023-03-23T06:14:26;36.55;;;5.70;;
64282;SDS011;50497;50.720;-2.084;2023-03-23T06:16:58;31.25;;;4.53;;
64282;SDS011;50497;50.720;-2.084;2023-03-23T06:19:26;38.38;;;6.07;;
64282;SDS011;50497;50.720;-2.084;2023-03-23T06:21:52;35.25;;;5.43;;
64282;SDS011;50497;50.720;-2.084;2023-03-23T06:24:19;29.25;;;5.35;;
64282;SDS011;50497;50.720;-2.084;2023-03-23T06:26:46;34.47;;;4.85;;
64282;SDS011;50497;50.720;-2.084;2023-03-23T06:29:12;41.53;;;5.22;;
64282;SDS011;50497;50.720;-2.084;2023-03-23T06:31:46;31.40;;;4.60;;
64282;SDS011;50497;50.720;-2.084;2023-03-23T06:34:21;37.08;;;5.18;;
64282;SDS011;50497;50.720;-2.084;2023-03-23T06:36:49;29.20;;;4.47;;
64282;SDS011;50497;50.720;-2.084;2023-03-23T06:39:17;29.50;;;4.53;;
64282;SDS011;50497;50.720;-2.084;2023-03-23T06:41:51;27.13;;;4.47;;
64282;SDS011;50497;50.720;-2.084;2023-03-23T06:44:18;34.22;;;5.40;;
64282;SDS011;50497;50.720;-2.084;2023-03-23T06:46:44;26.00;;;4.65;;
64282;SDS011;50497;50.720;-2.084;2023-03-23T06:49:10;30.23;;;4.85;;
64282;SDS011;50497;50.720;-2.084;2023-03-23T06:51:36;21.65;;;4.15;;
64282;SDS011;50497;50.720;-2.084;2023-03-23T06:54:02;30.77;;;4.78;;
64282;SDS011;50497;50.720;-2.084;2023-03-23T06:56:28;35.97;;;5.05;;
64282;SDS011;50497;50.720;-2.084;2023-03-23T06:58:55;21.73;;;3.92;;
64282;SDS011;50497;50.720;-2.084;2023-03-23T07:01:21;26.83;;;4.50;;
64282;SDS011;50497;50.720;-2.084;2023-03-23T07:03:47;32.35;;;4.55;;
64282;SDS011;50497;50.720;-2.084;2023-03-23T07:06:13;29.10;;;5.15;;
64282;SDS011;50497;50.720;-2.084;2023-03-23T07:08:40;24.52;;;3.75;;
64282;SDS011;50497;50.720;-2.084;2023-03-23T07:11:06;31.27;;;4.85;;
64282;SDS011;50497;50.720;-2.084;2023-03-23T07:13:31;24.85;;;3.83;;
64282;SDS011;50497;50.720;-2.084;2023-03-23T07:16:03;26.38;;;5.60;;
64282;SDS011;50497;50.720;-2.084;2023-03-23T07:18:31;22.95;;;3.85;;
64282;SDS011;50497;50.720;-2.084;2023-03-23T07:21:05;24.02;;;4.05;;
64282;SDS011;50497;50.720;-2.084;2023-03-23T07:23:35;18.23;;;3.25;;
64282;SDS011;50497;50.720;-2.084;2023-03-23T07:26:05;29.38;;;4.35;;
64282;SDS011;50497;50.720;-2.084;2023-03-23T07:28:35;21.20;;;3.38;;
64282;SDS011;50497;50.720;-2.084;2023-03-23T07:31:01;30.38;;;4.20;;
64282;SDS011;50497;50.720;-2.084;2023-03-23T07:33:28;31.52;;;4.60;;
64282;SDS011;50497;50.720;-2.084;2023-03-23T07:36:01;23.95;;;4.15;;
64282;SDS011;50497;50.720;-2.084;2023-03-23T07:38:27;25.40;;;4.53;;
64282;SDS011;50497;50.720;-2.084;2023-03-23T07:40:56;28.20;;;4.82;;
64282;SDS011;50497;50.720;-2.084;2023-03-23T07:43:24;28.65;;;4.38;;
64282;SDS011;50497;50.720;-2.084;2023-03-23T07:45:50;21.05;;;3.38;;
64282;SDS011;50497;50.720;-2.084;2023-03-23T07:48:19;22.80;;;4.00;;
64282;SDS011;50497;50.720;-2.084;2023-03-23T07:50:45;24.02;;;4.00;;
64282;SDS011;50497;50.720;-2.084;2023-03-23T07:53:12;28.33;;;3.90;;
64282;SDS011;50497;50.720;-2.084;2023-03-23T07:55:38;28.85;;;4.00;;
64282;SDS011;50497;50.720;-2.084;2023-03-23T07:58:04;24.75;;;3.60;;
64282;SDS011;50497;50.720;-2.084;2023-03-23T08:00:33;21.85;;;3.70;;
64282;SDS011;50497;50.720;-2.084;2023-03-23T08:03:00;24.85;;;3.63;;
64282;SDS011;50497;50.720;-2.084;2023-03-23T08:05:27;24.20;;;3.80;;
64282;SDS011;50497;50.720;-2.084;2023-03-23T08:07:56;18.73;;;3.60;;
64282;SDS011;50497;50.720;-2.084;2023-03-23T08:10:22;26.52;;;3.40;;
64282;SDS011;50497;50.720;-2.084;2023-03-23T08:12:52;26.75;;;4.15;;
64282;SDS011;50497;50.720;-2.084;2023-03-23T08:15:20;22.13;;;3.78;;
64282;SDS011;50497;50.720;-2.084;2023-03-23T08:17:47;26.50;;;4.03;;
64282;SDS011;50497;50.720;-2.084;2023-03-23T08:20:12;23.23;;;4.40;;
64282;SDS011;50497;50.720;-2.084;2023-03-23T08:22:39;21.77;;;3.78;;
64282;SDS011;50497;50.720;-2.084;2023-03-23T08:25:07;20.00;;;3.40;;
64282;SDS011;50497;50.720;-2.084;2023-03-23T08:27:33;24.40;;;4.00;;
64282;SDS011;50497;50.720;-2.084;2023-03-23T08:29:59;25.30;;;4.00;;
64282;SDS011;50497;50.720;-2.084;2023-03-23T08:32:25;26.23;;;4.47;;
64282;SDS011;50497;50.720;-2.084;2023-03-23T08:34:51;18.85;;;3.33;;
64282;SDS011;50497;50.720;-2.084;2023-03-23T08:37:17;23.13;;;3.97;;
64282;SDS011;50497;50.720;-2.084;2023-03-23T08:39:42;25.13;;;4.18;;
64282;SDS011;50497;50.720;-2.084;2023-03-23T08:42:10;29.65;;;4.20;;
64282;SDS011;50497;50.720;-2.084;2023-03-23T08:44:38;24.50;;;4.15;;
64282;SDS011;50497;50.720;-2.084;2023-03-23T08:47:05;29.75;;;4.78;;
64282;SDS011;50497;50.720;-2.084;2023-03-23T08:49:31;24.90;;;3.80;;
64282;SDS011;50497;50.720;-2.084;2023-03-23T08:52:00;29.67;;;4.93;;
64282;SDS011;50497;50.720;-2.084;2023-03-23T08:54:26;31.25;;;4.45;;
64282;SDS011;50497;50.720;-2.084;2023-03-23T08:56:52;29.73;;;4.88;;
64282;SDS011;50497;50.720;-2.084;2023-03-23T08:59:22;30.52;;;5.68;;
64282;SDS011;50497;50.720;-2.084;2023-03-23T09:01:48;25.63;;;5.22;;
64282;SDS011;50497;50.720;-2.084;2023-03-23T09:04:13;33.50;;;5.60;;
64282;SDS011;50497;50.720;-2.084;2023-03-23T09:06:39;28.90;;;4.95;;
64282;SDS011;50497;50.720;-2.084;2023-03-23T09:09:08;30.50;;;5.28;;
64282;SDS011;50497;50.720;-2.084;2023-03-23T09:11:34;27.10;;;4.88;;
64282;SDS011;50497;50.720;-2.084;2023-03-23T09:14:01;26.38;;;4.65;;
64282;SDS011;50497;50.720;-2.084;2023-03-23T09:16:28;33.85;;;6.05;;
64282;SDS011;50497;50.720;-2.084;2023-03-23T09:18:53;33.67;;;5.93;;
64282;SDS011;50497;50.720;-2.084;2023-03-23T09:21:22;28.70;;;5.57;;
64282;SDS011;50497;50.720;-2.084;2023-03-23T09:23:48;28.05;;;5.43;;
64282;SDS011;50497;50.720;-2.084;2023-03-23T09:26:14;30.33;;;5.57;;
64282;SDS011;50497;50.720;-2.084;2023-03-23T09:28:40;32.50;;;5.53;;
64282;SDS011;50497;50.720;-2.084;2023-03-23T09:31:05;23.13;;;3.88;;
64282;SDS011;50497;50.720;-2.084;2023-03-23T09:33:31;23.83;;;5.10;;
64282;SDS011;50497;50.720;-2.084;2023-03-23T09:35:59;24.95;;;5.40;;
64282;SDS011;50497;50.720;-2.084;2023-03-23T09:38:29;34.47;;;5.13;;
64282;SDS011;50497;50.720;-2.084;2023-03-23T09:44:16;26.40;;;5.47;;
64282;SDS011;50497;50.720;-2.084;2023-03-23T09:47:04;33.65;;;5.28;;
64282;SDS011;50497;50.720;-2.084;2023-03-23T09:52:22;25.23;;;5.57;;
64282;SDS011;50497;50.720;-2.084;2023-03-23T09:54:58;31.10;;;5.80;;
64282;SDS011;50497;50.720;-2.084;2023-03-23T09:57:26;29.80;;;5.20;;
64282;SDS011;50497;50.720;-2.084;2023-03-23T10:02:36;36.80;;;6.13;;
64282;SDS011;50497;50.720;-2.084;2023-03-23T10:05:22;30.60;;;5.53;;
64282;SDS011;50497;50.720;-2.084;2023-03-23T10:08:00;29.45;;;5.18;;
64282;SDS011;50497;50.720;-2.084;2023-03-23T10:16:03;31.40;;;5.47;;
64282;SDS011;50497;50.720;-2.084;2023-03-23T10:21:48;26.38;;;5.30;;
64282;SDS011;50497;50.720;-2.084;2023-03-23T10:24:21;22.05;;;5.07;;
64282;SDS011;50497;50.720;-2.084;2023-03-23T10:27:02;25.58;;;5.60;;
64282;SDS011;50497;50.720;-2.084;2023-03-23T10:29:34;29.52;;;6.68;;
64282;SDS011;50497;50.720;-2.084;2023-03-23T10:34:50;28.98;;;5.10;;
64282;SDS011;50497;50.720;-2.084;2023-03-23T10:39:55;35.05;;;5.90;;
64282;SDS011;50497;50.720;-2.084;2023-03-23T10:44:59;28.55;;;5.03;;
64282;SDS011;50497;50.720;-2.084;2023-03-23T10:47:35;27.45;;;5.40;;
64282;SDS011;50497;50.720;-2.084;2023-03-23T10:50:04;29.85;;;5.18;;
64282;SDS011;50497;50.720;-2.084;2023-03-23T10:52:39;30.80;;;5.00;;
64282;SDS011;50497;50.720;-2.084;2023-03-23T10:57:43;27.48;;;4.72;;
64282;SDS011;50497;50.720;-2.084;2023-03-23T11:02:43;33.28;;;5.25;;
64282;SDS011;50497;50.720;-2.084;2023-03-23T11:05:19;26.15;;;5.20;;
64282;SDS011;50497;50.720;-2.084;2023-03-23T11:07:56;27.60;;;4.88;;
64282;SDS011;50497;50.720;-2.084;2023-03-23T11:10:24;30.60;;;5.25;;
64282;SDS011;50497;50.720;-2.084;2023-03-23T11:12:51;24.88;;;4.85;;
64282;SDS011;50497;50.720;-2.084;2023-03-23T11:15:34;28.42;;;5.50;;
64282;SDS011;50497;50.720;-2.084;2023-03-23T11:18:08;28.05;;;5.45;;
64282;SDS011;50497;50.720;-2.084;2023-03-23T11:20:43;27.23;;;5.22;;
64282;SDS011;50497;50.720;-2.084;2023-03-23T11:23:20;23.60;;;4.20;;
64282;SDS011;50497;50.720;-2.084;2023-03-23T11:25:53;24.33;;;5.13;;
64282;SDS011;50497;50.720;-2.084;2023-03-23T11:28:36;26.67;;;4.75;;
64282;SDS011;50497;50.720;-2.084;2023-03-23T11:31:07;23.90;;;5.35;;
64282;SDS011;50497;50.720;-2.084;2023-03-23T11:36:18;30.17;;;5.20;;
64282;SDS011;50497;50.720;-2.084;2023-03-23T11:38:44;22.48;;;4.32;;
64282;SDS011;50497;50.720;-2.084;2023-03-23T11:41:11;19.77;;;4.50;;
64282;SDS011;50497;50.720;-2.084;2023-03-23T11:43:44;27.15;;;4.50;;
64282;SDS011;50497;50.720;-2.084;2023-03-23T11:46:13;22.35;;;4.05;;
64282;SDS011;50497;50.720;-2.084;2023-03-23T11:48:57;25.80;;;4.90;;
64282;SDS011;50497;50.720;-2.084;2023-03-23T11:51:31;20.70;;;4.78;;
64282;SDS011;50497;50.720;-2.084;2023-03-23T11:56:38;23.33;;;4.60;;
64282;SDS011;50497;50.720;-2.084;2023-03-23T11:59:11;24.85;;;4.43;;
64282;SDS011;50497;50.720;-2.084;2023-03-23T12:08:14;23.75;;;4.45;;
64282;SDS011;50497;50.720;-2.084;2023-03-23T12:18:50;22.88;;;4.45;;
64282;SDS011;50497;50.720;-2.084;2023-03-23T12:26:37;27.55;;;4.95;;
64282;SDS011;50497;50.720;-2.084;2023-03-23T12:31:55;27.65;;;5.00;;
64282;SDS011;50497;50.720;-2.084;2023-03-23T12:34:32;28.27;;;5.40;;
64282;SDS011;50497;50.720;-2.084;2023-03-23T12:42:59;31.73;;;5.95;;
64282;SDS011;50497;50.720;-2.084;2023-03-23T12:48:38;30.77;;;5.78;;
64282;SDS011;50497;50.720;-2.084;2023-03-23T12:54:01;29.60;;;5.13;;
64282;SDS011;50497;50.720;-2.084;2023-03-23T13:02:07;32.13;;;5.53;;
64282;SDS011;50497;50.720;-2.084;2023-03-23T13:05:49;32.53;;;5.72;;
64282;SDS011;50497;50.720;-2.084;2023-03-23T13:08:03;26.67;;;4.90;;
64282;SDS011;50497;50.720;-2.084;2023-03-23T13:10:44;30.85;;;5.57;;
64282;SDS011;50497;50.720;-2.084;2023-03-23T13:13:22;25.40;;;5.15;;
64282;SDS011;50497;50.720;-2.084;2023-03-23T13:21:50;26.50;;;5.38;;
64282;SDS011;50497;50.720;-2.084;2023-03-23T13:24:25;31.95;;;5.03;;
64282;SDS011;50497;50.720;-2.084;2023-03-23T13:26:53;31.00;;;5.28;;
64282;SDS011;50497;50.720;-2.084;2023-03-23T13:29:23;31.80;;;5.00;;
64282;SDS011;50497;50.720;-2.084;2023-03-23T13:31:50;25.63;;;4.53;;
64282;SDS011;50497;50.720;-2.084;2023-03-23T13:36:59;31.92;;;5.53;;
64282;SDS011;50497;50.720;-2.084;2023-03-23T13:39:31;31.20;;;5.88;;
64282;SDS011;50497;50.720;-2.084;2023-03-23T13:42:28;30.30;;;4.80;;
64282;SDS011;50497;50.720;-2.084;2023-03-23T13:47:40;37.38;;;6.35;;
64282;SDS011;50497;50.720;-2.084;2023-03-23T14:06:06;24.52;;;4.97;;
64282;SDS011;50497;50.720;-2.084;2023-03-23T14:08:39;26.52;;;4.93;;
64282;SDS011;50497;50.720;-2.084;2023-03-23T14:11:44;29.63;;;5.15;;
64282;SDS011;50497;50.720;-2.084;2023-03-23T14:14:29;30.92;;;5.75;;
64282;SDS011;50497;50.720;-2.084;2023-03-23T14:19:45;33.08;;;5.47;;
64282;SDS011;50497;50.720;-2.084;2023-03-23T14:22:36;27.75;;;5.10;;
64282;SDS011;50497;50.720;-2.084;2023-03-23T14:27:46;34.78;;;5.75;;
64282;SDS011;50497;50.720;-2.084;2023-03-23T14:30:17;22.80;;;4.30;;
64282;SDS011;50497;50.720;-2.084;2023-03-23T14:32:45;30.17;;;4.90;;
64282;SDS011;50497;50.720;-2.084;2023-03-23T14:35:48;21.27;;;4.30;;
64282;SDS011;50497;50.720;-2.084;2023-03-23T14:38:18;31.95;;;5.70;;
64282;SDS011;50497;50.720;-2.084;2023-03-23T14:40:49;26.17;;;5.07;;
64282;SDS011;50497;50.720;-2.084;2023-03-23T14:43:20;24.35;;;4.35;;
64282;SDS011;50497;50.720;-2.084;2023-03-23T14:45:49;24.15;;;4.28;;
64282;SDS011;50497;50.720;-2.084;2023-03-23T14:48:17;30.45;;;4.05;;
64282;SDS011;50497;50.720;-2.084;2023-03-23T14:50:55;34.58;;;5.43;;
64282;SDS011;50497;50.720;-2.084;2023-03-23T14:53:39;30.73;;;4.80;;
64282;SDS011;50497;50.720;-2.084;2023-03-23T14:56:13;23.15;;;4.40;;
64282;SDS011;50497;50.720;-2.084;2023-03-23T14:58:44;24.95;;;4.70;;
64282;SDS011;50497;50.720;-2.084;2023-03-23T15:01:10;29.63;;;4.00;;
64282;SDS011;50497;50.720;-2.084;2023-03-23T15:03:51;22.92;;;3.85;;
64282;SDS011;50497;50.720;-2.084;2023-03-23T15:06:24;20.33;;;3.83;;
64282;SDS011;50497;50.720;-2.084;2023-03-23T15:08:57;30.90;;;5.15;;
64282;SDS011;50497;50.720;-2.084;2023-03-23T15:11:32;25.73;;;4.38;;
64282;SDS011;50497;50.720;-2.084;2023-03-23T15:14:02;24.38;;;4.82;;
64282;SDS011;50497;50.720;-2.084;2023-03-23T15:16:34;21.55;;;4.72;;
64282;SDS011;50497;50.720;-2.084;2023-03-23T15:19:02;31.25;;;4.72;;
64282;SDS011;50497;50.720;-2.084;2023-03-23T15:21:33;29.27;;;5.15;;
64282;SDS011;50497;50.720;-2.084;2023-03-23T15:26:48;18.52;;;3.60;;
64282;SDS011;50497;50.720;-2.084;2023-03-23T15:29:22;20.67;;;3.45;;
64282;SDS011;50497;50.720;-2.084;2023-03-23T15:31:58;16.88;;;3.20;;
64282;SDS011;50497;50.720;-2.084;2023-03-23T15:34:35;21.58;;;4.57;;
64282;SDS011;50497;50.720;-2.084;2023-03-23T15:37:23;25.40;;;4.05;;
64282;SDS011;50497;50.720;-2.084;2023-03-23T15:39:56;20.80;;;3.67;;
64282;SDS011;50497;50.720;-2.084;2023-03-23T15:42:36;24.83;;;4.68;;
64282;SDS011;50497;50.720;-2.084;2023-03-23T15:45:16;23.15;;;3.72;;
64282;SDS011;50497;50.720;-2.084;2023-03-23T15:47:53;21.52;;;3.78;;
64282;SDS011;50497;50.720;-2.084;2023-03-23T15:50:39;24.20;;;4.50;;
64282;SDS011;50497;50.720;-2.084;2023-03-23T15:55:54;21.08;;;4.05;;
64282;SDS011;50497;50.720;-2.084;2023-03-23T15:58:28;23.08;;;4.50;;
64282;SDS011;50497;50.720;-2.084;2023-03-23T16:01:23;20.73;;;4.25;;
64282;SDS011;50497;50.720;-2.084;2023-03-23T16:03:50;21.70;;;3.60;;
64282;SDS011;50497;50.720;-2.084;2023-03-23T16:06:29;23.27;;;4.35;;
64282;SDS011;50497;50.720;-2.084;2023-03-23T16:09:00;24.35;;;4.93;;
64282;SDS011;50497;50.720;-2.084;2023-03-23T16:11:49;26.83;;;5.10;;
64282;SDS011;50497;50.720;-2.084;2023-03-23T16:14:18;21.90;;;4.38;;
64282;SDS011;50497;50.720;-2.084;2023-03-23T16:16:52;29.25;;;4.72;;
64282;SDS011;50497;50.720;-2.084;2023-03-23T16:19:18;25.60;;;4.40;;
64282;SDS011;50497;50.720;-2.084;2023-03-23T16:21:48;25.88;;;4.55;;
64282;SDS011;50497;50.720;-2.084;2023-03-23T16:24:18;23.08;;;4.18;;
64282;SDS011;50497;50.720;-2.084;2023-03-23T16:29:17;26.10;;;3.85;;
64282;SDS011;50497;50.720;-2.084;2023-03-23T16:31:53;18.30;;;3.13;;
64282;SDS011;50497;50.720;-2.084;2023-03-23T16:34:25;26.73;;;4.80;;
64282;SDS011;50497;50.720;-2.084;2023-03-23T16:36:59;22.38;;;4.50;;
64282;SDS011;50497;50.720;-2.084;2023-03-23T16:39:26;25.23;;;4.18;;
64282;SDS011;50497;50.720;-2.084;2023-03-23T16:41:59;23.13;;;4.03;;
64282;SDS011;50497;50.720;-2.084;2023-03-23T16:44:30;26.58;;;4.60;;
64282;SDS011;50497;50.720;-2.084;2023-03-23T16:46:58;23.65;;;4.15;;
64282;SDS011;50497;50.720;-2.084;2023-03-23T16:49:24;29.27;;;4.72;;
64282;SDS011;50497;50.720;-2.084;2023-03-23T16:51:56;21.67;;;3.72;;
64282;SDS011;50497;50.720;-2.084;2023-03-23T16:54:26;20.27;;;4.13;;
64282;SDS011;50497;50.720;-2.084;2023-03-23T16:56:51;14.60;;;3.65;;
64282;SDS011;50497;50.720;-2.084;2023-03-23T16:59:16;19.83;;;4.25;;
64282;SDS011;50497;50.720;-2.084;2023-03-23T17:01:42;29.45;;;5.15;;
64282;SDS011;50497;50.720;-2.084;2023-03-23T17:04:07;34.55;;;5.38;;
64282;SDS011;50497;50.720;-2.084;2023-03-23T17:06:37;20.42;;;4.63;;